KMTW/MTW METAR and TAF weather

Enter ICAO airport designator
Station Type Date Time Source
KMTW METAR 2022/01/18 06:56 UTC NOAA

KMTW 180656Z AUTO 28007KT 10SM OVC032 M02/M07 A2989 RMK AO2 SLP129 T10221067 FZRANO


Station Type Date Time Source
KMTW Decoded METAR 2022/01/18 06:56 UTC NOAA

Manitowoc, Manitowoc County Airport, WI, United States (KMTW) 44-08N 087-41W
Jan 18, 2022 - 01:56 AM EST / 2022.01.18 0656 UTC
Wind: from the W (280 degrees) at 8 MPH (7 KT):0
Visibility: 10 mile(s):0
Sky conditions: overcast
Temperature: 28.0 F (-2.2 C)
Windchill: 19 F (-7 C):1
Dew Point: 19.9 F (-6.7 C)
Relative Humidity: 71%
Pressure (altimeter): 29.89 in. Hg (1012 hPa)
ob: KMTW 180656Z AUTO 28007KT 10SM OVC032 M02/M07 A2989 RMK AO2 SLP129 T10221067 FZRANO
cycle: 7

Station Type Date Time Source
KMTW TAF 2022/01/18 06:22 UTC NOAA

TAF KMTW 180520Z 1806/1906 26003KT P6SM BKN026
FM181600 17013G21KT P6SM -SHSN OVC016
FM182000 18016G26KT P6SM -SHSN OVC021
FM182300 21014G23KT P6SM -SHSN OVC020
FM190300 25014G27KT P6SM OVC015
FM190400 26015G28KT P6SM OVC019 WS003/17015KT

Example: see airport list